createdAt,value
2018-04-11T00:01:30.484Z,3.60
2018-04-11T00:03:57.963Z,3.70
2018-04-11T00:06:25.419Z,3.90
2018-04-11T00:08:52.901Z,4.17
2018-04-11T00:11:20.355Z,4.20
2018-04-11T00:13:48.705Z,4.70
2018-04-11T00:16:16.179Z,4.87
2018-04-11T00:18:43.656Z,6.13
2018-04-11T00:21:11.120Z,5.80
2018-04-11T00:23:38.600Z,5.90
2018-04-11T00:26:06.064Z,5.90
2018-04-11T00:28:33.599Z,6.47
2018-04-11T00:31:01.075Z,7.10
2018-04-11T00:33:28.559Z,6.40
2018-04-11T00:35:56.097Z,7.40
2018-04-11T00:38:23.730Z,6.93
2018-04-11T00:40:51.278Z,8.30
2018-04-11T00:43:18.951Z,6.83
2018-04-11T00:45:46.619Z,6.83
2018-04-11T00:48:14.105Z,6.47
2018-04-11T00:50:41.635Z,6.57
2018-04-11T00:53:21.022Z,7.10
2018-04-11T00:55:48.695Z,6.27
2018-04-11T00:58:16.930Z,6.80
2018-04-11T01:00:44.463Z,7.33
2018-04-11T01:03:11.933Z,7.33
2018-04-11T01:05:39.411Z,7.20
2018-04-11T01:08:06.891Z,7.03
2018-04-11T01:10:35.127Z,6.73
2018-04-11T01:13:02.667Z,7.10
2018-04-11T01:15:30.295Z,7.37
2018-04-11T01:17:58.524Z,7.30
2018-04-11T01:20:26.082Z,6.43
2018-04-11T01:22:53.539Z,7.93
2018-04-11T01:25:21.017Z,8.07
2018-04-11T01:27:48.499Z,7.07
2018-04-11T01:30:16.809Z,7.00
2018-04-11T01:32:44.429Z,7.43
2018-04-11T01:35:11.887Z,6.93
2018-04-11T01:37:40.139Z,6.80
2018-04-11T01:40:07.607Z,6.93
2018-04-11T01:42:35.086Z,6.40
2018-04-11T01:45:03.319Z,6.30
2018-04-11T01:47:30.853Z,7.40
2018-04-11T01:49:58.555Z,6.60
2018-04-11T01:52:26.044Z,6.50
2018-04-11T01:54:54.410Z,7.00
2018-04-11T01:57:21.878Z,5.60
2018-04-11T01:59:50.136Z,6.47
2018-04-11T02:02:18.377Z,5.73
2018-04-11T02:04:45.835Z,6.30
2018-04-11T02:07:13.300Z,6.30
2018-04-11T02:09:41.656Z,6.97
2018-04-11T02:12:09.837Z,6.63
2018-04-11T02:14:37.336Z,5.60
2018-04-11T02:17:05.568Z,5.43
2018-04-11T02:19:33.131Z,5.57
2018-04-11T02:22:00.591Z,5.67
2018-04-11T02:24:28.088Z,5.20
2018-04-11T02:26:57.070Z,4.40
2018-04-11T02:29:24.535Z,5.07
2018-04-11T02:31:52.755Z,5.00
2018-04-11T02:34:20.332Z,4.87
2018-04-11T02:36:47.803Z,5.10
2018-04-11T02:39:15.279Z,5.67
2018-04-11T02:41:42.794Z,5.57
2018-04-11T02:44:10.392Z,5.53
2018-04-11T02:46:37.981Z,4.57
2018-04-11T02:49:06.396Z,4.77
2018-04-11T02:51:35.121Z,4.93
2018-04-11T02:54:03.350Z,6.07
2018-04-11T02:56:31.003Z,4.87
2018-04-11T02:58:58.470Z,4.73
2018-04-11T03:01:25.946Z,5.40
2018-04-11T03:03:53.410Z,5.10
2018-04-11T03:06:20.891Z,5.73
2018-04-11T03:08:49.206Z,5.30
2018-04-11T03:11:16.816Z,5.00
2018-04-11T03:13:44.291Z,5.30
2018-04-11T03:16:12.549Z,6.33
2018-04-11T03:18:40.063Z,5.20
2018-04-11T03:21:07.520Z,5.93
2018-04-11T03:23:35.009Z,5.50
2018-04-11T03:26:02.592Z,6.20
2018-04-11T03:28:30.875Z,6.00
2018-04-11T03:30:59.106Z,5.67
2018-04-11T03:33:26.584Z,6.47
2018-04-11T03:35:54.052Z,5.70
2018-04-11T03:38:21.515Z,6.27
2018-04-11T03:40:49.743Z,5.90
2018-04-11T03:43:17.248Z,5.73
2018-04-11T03:45:45.479Z,6.03
2018-04-11T03:48:12.956Z,6.93
2018-04-11T03:50:40.426Z,7.03
2018-04-11T03:53:07.986Z,5.97
2018-04-11T03:55:35.440Z,6.17
2018-04-11T03:58:04.420Z,6.37
2018-04-11T04:00:31.889Z,6.00
2018-04-11T04:03:00.128Z,5.90
2018-04-11T04:05:27.610Z,5.40
2018-04-11T04:07:55.188Z,6.33
2018-04-11T04:10:24.172Z,6.60
2018-04-11T04:12:52.540Z,6.80
2018-04-11T04:15:31.964Z,6.43
2018-04-11T04:18:22.056Z,6.07
2018-04-11T04:20:49.597Z,6.20
2018-04-11T04:23:17.055Z,5.90
2018-04-11T04:25:44.552Z,5.77
2018-04-11T04:28:12.771Z,6.20
2018-04-11T04:30:40.231Z,5.50
2018-04-11T04:33:07.717Z,5.83
2018-04-11T04:35:35.187Z,5.93
2018-04-11T04:38:02.655Z,6.70
2018-04-11T04:40:30.138Z,6.10
2018-04-11T04:42:58.376Z,6.60
2018-04-11T04:45:25.888Z,6.00
2018-04-11T04:47:53.355Z,5.90
2018-04-11T04:50:20.833Z,4.90
2018-04-11T04:52:48.312Z,5.67
2018-04-11T04:55:16.571Z,5.37
2018-04-11T04:57:44.073Z,5.50
2018-04-11T05:00:12.297Z,5.40
2018-04-11T05:02:39.784Z,5.20
2018-04-11T05:05:07.248Z,5.40
2018-04-11T05:07:35.604Z,5.27
2018-04-11T05:10:03.064Z,5.47
2018-04-11T05:12:30.559Z,6.10
2018-04-11T05:14:58.898Z,5.73
2018-04-11T05:17:26.460Z,5.40
2018-04-11T05:19:54.691Z,5.73
2018-04-11T05:22:22.171Z,6.57
2018-04-11T05:24:49.641Z,6.90
2018-04-11T05:27:17.236Z,7.03
2018-04-11T05:29:45.456Z,6.27
2018-04-11T05:32:12.923Z,6.07
2018-04-11T05:34:40.454Z,6.17
2018-04-11T05:37:07.931Z,5.73
2018-04-11T05:39:35.391Z,5.87
2018-04-11T05:42:02.877Z,5.83
2018-04-11T05:44:30.340Z,5.87
2018-04-11T05:46:58.589Z,5.73
2018-04-11T05:49:26.057Z,4.70
2018-04-11T05:51:53.566Z,6.13
2018-04-11T05:54:21.037Z,5.83
2018-04-11T05:56:48.499Z,6.80
2018-04-11T05:59:15.980Z,6.40
2018-04-11T06:01:45.065Z,7.07
2018-04-11T06:04:12.553Z,7.10
2018-04-11T06:06:40.022Z,6.93
2018-04-11T06:09:08.259Z,7.30
2018-04-11T06:11:35.849Z,6.77
2018-04-11T06:14:04.072Z,7.20
2018-04-11T06:16:31.588Z,6.97
2018-04-11T06:18:59.812Z,6.57
2018-04-11T06:21:27.304Z,7.33
2018-04-11T06:23:54.952Z,7.20
2018-04-11T06:26:22.415Z,7.63
2018-04-11T06:28:49.982Z,8.00
2018-04-11T06:31:18.566Z,7.10
2018-04-11T06:33:46.843Z,7.60
2018-04-11T06:36:14.289Z,7.23
2018-04-11T06:38:41.766Z,6.57
2018-04-11T06:41:10.047Z,6.03
2018-04-11T06:43:37.700Z,7.10
2018-04-11T06:46:05.162Z,6.83
2018-04-11T06:48:34.388Z,6.53
2018-04-11T06:51:01.877Z,6.97
2018-04-11T06:53:29.491Z,6.80
2018-04-11T06:55:57.734Z,6.83
2018-04-11T06:58:27.849Z,6.10
2018-04-11T07:00:55.619Z,7.20
2018-04-11T07:03:23.097Z,6.60
2018-04-11T07:05:51.336Z,6.40
2018-04-11T07:08:19.315Z,7.57
2018-04-11T07:10:46.874Z,6.00
2018-04-11T07:13:14.367Z,7.60
2018-04-11T07:15:43.518Z,6.80
2018-04-11T07:18:11.001Z,8.17
2018-04-11T07:20:38.470Z,7.30
2018-04-11T07:23:07.291Z,7.10
2018-04-11T07:25:34.797Z,6.90
2018-04-11T07:28:02.268Z,7.20
2018-04-11T07:30:30.714Z,7.60
2018-04-11T07:32:58.192Z,7.07
2018-04-11T07:35:25.685Z,7.27
2018-04-11T07:37:53.240Z,6.97
2018-04-11T07:40:22.062Z,7.00
2018-04-11T07:42:49.531Z,7.67
2018-04-11T07:45:17.115Z,7.80
2018-04-11T07:47:45.379Z,8.73
2018-04-11T07:50:12.851Z,8.10
2018-04-11T07:52:41.095Z,7.87
2018-04-11T07:55:08.588Z,8.20
2018-04-11T07:57:36.961Z,7.80
2018-04-11T08:00:04.507Z,7.60
2018-04-11T08:02:31.983Z,8.63
2018-04-11T08:05:00.241Z,7.73
2018-04-11T08:07:27.719Z,8.03
2018-04-11T08:09:55.989Z,7.50
2018-04-11T08:12:23.428Z,8.03
2018-04-11T08:14:50.938Z,8.40
2018-04-11T08:17:18.421Z,9.23
2018-04-11T08:19:45.902Z,8.47
2018-04-11T08:22:13.378Z,8.70
2018-04-11T08:24:41.623Z,9.83
2018-04-11T08:27:09.266Z,8.00
2018-04-11T08:29:36.720Z,8.10
2018-04-11T08:32:04.220Z,8.67
2018-04-11T08:34:32.457Z,9.00
2018-04-11T08:36:59.947Z,8.23
2018-04-11T08:39:28.176Z,8.80
2018-04-11T08:41:56.248Z,8.67
2018-04-11T08:44:23.720Z,8.93
2018-04-11T08:46:51.212Z,8.43
2018-04-11T08:49:19.441Z,9.30
2018-04-11T08:51:46.939Z,9.47
2018-04-11T08:54:14.400Z,8.87
2018-04-11T08:56:42.667Z,9.07
2018-04-11T08:59:10.165Z,8.63
2018-04-11T09:01:38.406Z,9.30
2018-04-11T09:04:07.401Z,9.40
2018-04-11T09:06:36.394Z,9.67
2018-04-11T09:09:03.931Z,9.53
2018-04-11T09:11:32.403Z,10.30
2018-04-11T09:13:59.930Z,9.30
2018-04-11T09:16:27.543Z,11.10
2018-04-11T09:18:55.158Z,10.10
2018-04-11T09:21:22.782Z,10.50
2018-04-11T09:23:51.131Z,11.10
2018-04-11T09:26:18.711Z,11.37
2018-04-11T09:28:47.685Z,12.80
2018-04-11T09:31:15.317Z,11.97
2018-04-11T09:33:43.037Z,12.80
2018-04-11T09:36:11.288Z,11.43
2018-04-11T09:38:39.125Z,12.50
2018-04-11T09:41:07.334Z,12.43
2018-04-11T09:43:34.899Z,12.50
2018-04-11T09:46:03.165Z,13.47
2018-04-11T09:48:30.655Z,13.90
2018-04-11T09:50:58.891Z,15.30
2018-04-11T09:53:26.402Z,14.83
2018-04-11T09:55:53.882Z,13.23
2018-04-11T09:58:21.359Z,15.40
2018-04-11T10:00:53.732Z,15.00
2018-04-11T10:03:23.168Z,15.27
2018-04-11T10:05:51.407Z,15.13
2018-04-11T10:08:18.978Z,15.90
2018-04-11T10:10:46.466Z,15.83
2018-04-11T10:13:14.713Z,18.40
2018-04-11T10:15:42.176Z,18.20
2018-04-11T10:18:09.654Z,16.70
2018-04-11T10:20:37.167Z,15.70
2018-04-11T10:23:04.651Z,16.47
2018-04-11T10:25:32.129Z,16.80
2018-04-11T10:28:06.507Z,18.67
2018-04-11T10:30:34.796Z,19.07
2018-04-11T10:33:02.275Z,18.80
2018-04-11T10:35:30.513Z,18.83
2018-04-11T10:37:58.194Z,20.00
2018-04-11T10:40:25.771Z,20.10
2018-04-11T10:42:54.011Z,21.27
2018-04-11T10:45:21.684Z,20.37
2018-04-11T10:47:49.178Z,20.60
2018-04-11T10:50:17.492Z,22.00
2018-04-11T10:52:45.190Z,22.07
2018-04-11T10:55:12.679Z,21.80
2018-04-11T10:57:40.290Z,22.87
2018-04-11T11:00:07.781Z,23.20
2018-04-11T11:02:36.036Z,23.07
2018-04-11T11:05:03.510Z,20.77
2018-04-11T11:07:31.822Z,21.13
2018-04-11T11:09:59.323Z,22.60
2018-04-11T11:12:26.820Z,23.90
2018-04-11T11:14:54.304Z,22.77
2018-04-11T11:17:21.813Z,23.20
2018-04-11T11:20:02.023Z,23.53
2018-04-11T11:22:29.560Z,22.40
2018-04-11T11:24:57.037Z,21.10
2018-04-11T11:27:24.496Z,22.43
2018-04-11T11:29:51.971Z,22.20
2018-04-11T11:32:19.460Z,23.23
2018-04-11T11:34:47.726Z,23.37
2018-04-11T11:37:15.189Z,23.17
2018-04-11T11:39:43.442Z,25.00
2018-04-11T11:42:10.934Z,22.63
2018-04-11T11:44:39.301Z,24.83
2018-04-11T11:47:08.272Z,24.33
2018-04-11T11:49:35.777Z,22.30
2018-04-11T11:52:03.386Z,18.10
2018-04-11T11:54:30.820Z,19.90
2018-04-11T11:56:58.286Z,19.30
2018-04-11T11:59:26.548Z,18.87
2018-04-11T12:01:54.053Z,17.80
2018-04-11T12:04:21.651Z,18.47
2018-04-11T12:06:50.051Z,18.10
2018-04-11T12:09:17.543Z,18.10
2018-04-11T12:11:45.041Z,19.07
2018-04-11T12:14:12.585Z,18.50
2018-04-11T12:16:41.055Z,19.00
2018-04-11T12:19:09.317Z,18.50
2018-04-11T12:21:36.830Z,17.50
2018-04-11T12:24:04.390Z,18.67
2018-04-11T12:26:31.910Z,18.17
2018-04-11T12:28:59.435Z,19.83
2018-04-11T12:31:26.919Z,19.00
2018-04-11T12:33:54.416Z,19.70
2018-04-11T12:36:21.887Z,19.77
2018-04-11T12:38:49.385Z,19.97
2018-04-11T12:41:16.872Z,20.00
2018-04-11T12:43:44.450Z,21.63
2018-04-11T12:46:12.062Z,20.37
2018-04-11T12:48:41.050Z,22.83
2018-04-11T12:51:08.532Z,24.27
2018-04-11T12:53:36.891Z,26.57
2018-04-11T12:56:04.411Z,28.50
2018-04-11T12:58:31.983Z,27.50
2018-04-11T13:00:59.996Z,28.73
2018-04-11T13:03:27.231Z,31.07
2018-04-11T13:05:54.714Z,32.07
2018-04-11T13:08:22.192Z,32.17
2018-04-11T13:10:49.803Z,26.93
2018-04-11T13:13:18.636Z,31.97
2018-04-11T13:15:46.125Z,30.90
2018-04-11T13:18:13.651Z,30.60
2018-04-11T13:20:41.140Z,33.90
2018-04-11T13:23:08.632Z,35.10
2018-04-11T13:25:36.888Z,33.80
2018-04-11T13:28:04.367Z,33.27
2018-04-11T13:30:33.076Z,33.07
2018-04-11T13:33:00.573Z,34.20
2018-04-11T13:35:28.047Z,30.33
2018-04-11T13:37:55.521Z,32.97
2018-04-11T13:40:23.780Z,30.17
2018-04-11T13:42:52.011Z,33.63
2018-04-11T13:45:19.498Z,34.13
2018-04-11T13:47:47.017Z,33.23
2018-04-11T13:50:15.256Z,31.50
2018-04-11T13:52:42.743Z,32.93
2018-04-11T13:55:11.081Z,31.67
2018-04-11T13:57:38.557Z,32.20
2018-04-11T14:00:06.839Z,29.97
2018-04-11T14:02:35.095Z,30.83
2018-04-11T14:05:03.868Z,30.43
2018-04-11T14:07:31.360Z,31.23
2018-04-11T14:09:59.809Z,30.93
2018-04-11T14:12:27.283Z,29.87
2018-04-11T14:14:54.773Z,28.90
2018-04-11T14:17:22.343Z,26.20
2018-04-11T14:19:50.817Z,26.07
2018-04-11T14:22:19.137Z,24.73
2018-04-11T14:24:46.942Z,26.10
2018-04-11T14:27:14.430Z,25.37
2018-04-11T14:29:41.939Z,22.67
2018-04-11T14:32:09.422Z,22.70
2018-04-11T14:34:36.898Z,25.50
2018-04-11T14:37:04.419Z,23.90
2018-04-11T14:39:32.768Z,23.77
2018-04-11T14:42:00.291Z,23.47
2018-04-11T14:44:27.802Z,26.13
2018-04-11T14:46:56.210Z,24.77
2018-04-11T14:49:23.692Z,25.33
2018-04-11T14:51:51.169Z,24.63
2018-04-11T14:54:18.800Z,24.13
2018-04-11T14:56:46.291Z,23.80
2018-04-11T14:59:13.847Z,24.10
2018-04-11T15:01:41.416Z,24.40
2018-04-11T15:04:08.898Z,25.70
2018-04-11T15:06:37.155Z,23.77
2018-04-11T15:09:05.425Z,24.77
2018-04-11T15:11:32.900Z,23.53
2018-04-11T15:14:00.398Z,25.50
2018-04-11T15:16:27.863Z,26.80
2018-04-11T15:18:55.400Z,28.37
2018-04-11T15:21:23.181Z,27.37
2018-04-11T15:23:50.672Z,22.60
2018-04-11T15:26:18.160Z,21.20
2018-04-11T15:28:46.428Z,20.67
2018-04-11T15:31:14.672Z,21.43
2018-04-11T15:33:42.172Z,22.80
2018-04-11T15:36:10.414Z,23.17
2018-04-11T15:38:37.893Z,24.17
2018-04-11T15:41:05.591Z,22.00
2018-04-11T15:43:33.119Z,19.53
2018-04-11T15:46:00.602Z,19.43
2018-04-11T15:48:28.076Z,21.00
2018-04-11T15:50:55.684Z,22.23
2018-04-11T15:53:23.871Z,22.73
2018-04-11T15:55:52.131Z,21.70
2018-04-11T15:58:19.617Z,23.27
2018-04-11T16:00:47.881Z,21.37
2018-04-11T16:03:17.079Z,23.27
2018-04-11T16:05:45.349Z,23.47
2018-04-11T16:08:12.834Z,22.83
2018-04-11T16:10:40.843Z,17.80
2018-04-11T16:13:08.349Z,17.60
2018-04-11T16:15:36.627Z,17.27
2018-04-11T16:18:04.896Z,15.53
2018-04-11T16:20:33.143Z,16.70
2018-04-11T16:23:00.780Z,17.23
2018-04-11T16:25:28.263Z,13.80
2018-04-11T16:27:55.795Z,15.20
2018-04-11T16:30:23.546Z,15.63
2018-04-11T16:32:51.024Z,15.60
2018-04-11T16:35:18.512Z,16.43
2018-04-11T16:37:46.830Z,14.00
2018-04-11T16:40:14.320Z,13.83
2018-04-11T16:42:41.800Z,15.50
2018-04-11T16:45:09.291Z,13.87
2018-04-11T16:47:36.859Z,14.97
2018-04-11T16:50:04.335Z,14.80
2018-04-11T16:52:31.792Z,14.73
2018-04-11T16:54:59.596Z,14.30
2018-04-11T16:57:27.594Z,12.23
2018-04-11T16:59:55.381Z,11.37
2018-04-11T17:02:23.165Z,9.87
2018-04-11T17:04:50.953Z,8.20
2018-04-11T17:07:19.935Z,8.33
2018-04-11T17:09:47.556Z,8.50
2018-04-11T17:12:15.257Z,7.70
2018-04-11T17:14:43.346Z,8.03
2018-04-11T17:17:11.063Z,7.93
2018-04-11T17:19:38.562Z,8.60
2018-04-11T17:22:18.829Z,7.73
2018-04-11T17:24:58.947Z,7.33
2018-04-11T17:27:38.317Z,6.30
2018-04-11T17:30:18.480Z,7.40
2018-04-11T17:32:46.774Z,6.97
2018-04-11T17:35:15.122Z,7.83
2018-04-11T17:37:44.211Z,7.43
2018-04-11T17:40:11.685Z,7.60
2018-04-11T17:42:39.969Z,8.33
2018-04-11T17:45:07.536Z,8.00
2018-04-11T17:47:35.024Z,8.43
2018-04-11T17:50:03.367Z,8.40
2018-04-11T17:52:31.495Z,7.97
2018-04-11T17:54:59.519Z,7.50
2018-04-11T18:00:01.699Z,5.97
2018-04-11T18:02:29.952Z,5.77
2018-04-11T18:04:59.029Z,6.70
2018-04-11T18:07:27.397Z,5.17
2018-04-11T18:09:56.891Z,5.13
2018-04-11T18:12:25.027Z,4.77
2018-04-11T18:14:55.018Z,4.20
2018-04-11T18:17:22.789Z,4.60
2018-04-11T18:19:51.548Z,4.10
2018-04-11T18:22:19.785Z,3.83
2018-04-11T18:24:47.291Z,3.93
2018-04-11T18:27:14.831Z,4.60
2018-04-11T18:29:42.393Z,4.30
2018-04-11T18:32:09.952Z,4.03
2018-04-11T18:34:38.541Z,4.10
2018-04-11T18:37:06.321Z,4.20
2018-04-11T18:39:35.244Z,3.90
2018-04-11T18:42:04.999Z,3.90
2018-04-11T18:44:33.869Z,3.80
2018-04-11T18:47:01.648Z,3.60
2018-04-11T18:49:29.864Z,3.60
2018-04-11T18:51:57.733Z,3.80
2018-04-11T18:54:25.973Z,4.33
2018-04-11T18:56:53.771Z,3.63
2018-04-11T18:59:22.904Z,4.10
2018-04-11T19:01:50.742Z,4.07
2018-04-11T19:04:19.154Z,4.23
2018-04-11T19:06:47.304Z,4.20
2018-04-11T19:09:14.880Z,4.53
2018-04-11T19:11:42.393Z,4.57
2018-04-11T19:14:10.156Z,4.17
2018-04-11T19:16:37.657Z,4.20
2018-04-11T19:19:05.278Z,5.20
2018-04-11T19:21:32.947Z,4.00
2018-04-11T19:24:02.335Z,4.93
2018-04-11T19:26:30.038Z,5.07
2018-04-11T19:28:57.576Z,5.10
2018-04-11T19:31:25.135Z,5.47
2018-04-11T19:33:52.647Z,5.57
2018-04-11T19:36:20.189Z,4.87
2018-04-11T19:38:47.704Z,5.30
2018-04-11T19:41:15.945Z,5.17
2018-04-11T19:43:43.499Z,6.00
2018-04-11T19:46:10.981Z,5.90
2018-04-11T19:48:39.716Z,5.60
2018-04-11T19:51:07.276Z,6.03
2018-04-11T19:53:35.656Z,6.17
2018-04-11T19:56:03.128Z,5.60
2018-04-11T19:58:30.622Z,5.40
2018-04-11T20:00:58.129Z,4.90
2018-04-11T20:03:25.606Z,5.27
2018-04-11T20:05:53.086Z,5.70
2018-04-11T20:08:21.390Z,6.20
2018-04-11T20:10:48.953Z,5.23
2018-04-11T20:13:17.213Z,5.47
2018-04-11T20:15:45.535Z,6.63
2018-04-11T20:18:13.022Z,6.13
2018-04-11T20:20:40.464Z,6.80
2018-04-11T20:23:07.969Z,5.70
2018-04-11T20:25:36.203Z,7.07
2018-04-11T20:28:03.723Z,6.57
2018-04-11T20:30:32.107Z,5.90
2018-04-11T20:32:59.577Z,6.50
2018-04-11T20:35:27.055Z,5.63
2018-04-11T20:37:54.547Z,6.60
2018-04-11T20:40:23.138Z,5.90
2018-04-11T20:42:51.485Z,6.67
2018-04-11T20:45:19.221Z,6.80
2018-04-11T20:47:46.712Z,7.60
2018-04-11T20:50:14.189Z,7.63
2018-04-11T20:52:43.271Z,7.13
2018-04-11T20:55:10.738Z,6.40
2018-04-11T20:57:38.984Z,6.77
2018-04-11T21:00:06.457Z,6.53
2018-04-11T21:02:34.679Z,6.40
2018-04-11T21:05:02.160Z,5.63
2018-04-11T21:07:29.659Z,7.30
2018-04-11T21:09:57.257Z,7.73
2018-04-11T21:12:24.730Z,7.77
2018-04-11T21:14:52.220Z,7.80
2018-04-11T21:17:20.462Z,7.37
2018-04-11T21:19:47.974Z,8.13
2018-04-11T21:22:16.208Z,8.00
2018-04-11T21:24:43.683Z,9.07
2018-04-11T21:27:12.759Z,8.60
2018-04-11T21:29:40.240Z,7.73
2018-04-11T21:32:08.491Z,8.80
2018-04-11T21:34:35.979Z,8.80
2018-04-11T21:37:04.256Z,7.80
2018-04-11T21:39:32.524Z,6.93
2018-04-11T21:42:00.796Z,7.23
2018-04-11T21:44:28.263Z,8.00
2018-04-11T21:46:56.524Z,8.43
2018-04-11T21:49:23.999Z,8.70
2018-04-11T21:51:52.299Z,8.33
2018-04-11T21:54:19.781Z,8.50
2018-04-11T21:56:47.271Z,8.47
2018-04-11T21:59:14.768Z,7.20
2018-04-11T22:01:42.698Z,7.93
2018-04-11T22:04:10.164Z,8.53
2018-04-11T22:06:38.565Z,7.47
2018-04-11T22:09:06.899Z,7.40
2018-04-11T22:11:35.453Z,7.50
2018-04-11T22:14:02.979Z,7.20
2018-04-11T22:16:31.292Z,7.27
2018-04-11T22:18:58.790Z,7.30
2018-04-11T22:21:26.270Z,7.60
2018-04-11T22:23:54.515Z,8.00
2018-04-11T22:26:22.765Z,7.83
2018-04-11T22:28:50.317Z,7.80
2018-04-11T22:31:18.522Z,7.53
2018-04-11T22:33:45.992Z,8.17
2018-04-11T22:36:14.264Z,7.77
2018-04-11T22:38:41.772Z,8.13
2018-04-11T22:41:09.240Z,8.23
2018-04-11T22:43:37.477Z,8.30
2018-04-11T22:46:04.951Z,8.40
2018-04-11T22:48:32.472Z,8.80
2018-04-11T22:51:00.003Z,7.80
2018-04-11T22:53:27.487Z,7.80
2018-04-11T22:55:54.954Z,8.83
2018-04-11T22:58:23.192Z,8.43
2018-04-11T23:00:50.667Z,7.70
2018-04-11T23:03:18.884Z,7.97
2018-04-11T23:05:46.564Z,7.00
2018-04-11T23:08:14.258Z,7.20
2018-04-11T23:10:41.743Z,7.60
2018-04-11T23:13:09.977Z,7.53
2018-04-11T23:15:37.454Z,7.00
2018-04-11T23:18:04.931Z,7.30
2018-04-11T23:20:33.189Z,6.90
2018-04-11T23:23:00.726Z,7.83
2018-04-11T23:25:28.465Z,7.23
2018-04-11T23:27:55.934Z,7.67
2018-04-11T23:30:23.526Z,7.87
2018-04-11T23:32:51.089Z,7.23
2018-04-11T23:35:19.484Z,8.00
2018-04-11T23:37:47.723Z,7.57
2018-04-11T23:40:15.259Z,7.63
2018-04-11T23:42:42.715Z,7.63
2018-04-11T23:45:10.199Z,7.80
2018-04-11T23:47:37.653Z,8.70
2018-04-11T23:50:05.219Z,8.50
2018-04-11T23:52:32.695Z,8.13
2018-04-11T23:55:00.927Z,7.40
2018-04-11T23:57:28.412Z,7.47
2018-04-11T23:59:55.877Z,7.50
